Smithfield, Johnston County Airport (KJNX)

NameJohnston County Airport
CitySmithfield
CountryUnited States
ICAOKJNX
IATA
Altitude50 m
CoordinatesGoogle Map
Live Air TrafficLiveATC.net
METARKJNX 192355Z AUTO 00000KT 10SM SCT100 SCT120 23/23 A3004 RMK AO2 LTG DSNT SE
2019-08-19 23:55:00 Wind: North (0°) 0 m/s - Visibility: 16093.4 m - Temperature: 23 °C - Dew point: 23 °C - Humidity: 100% - Pressure: 1017.27 hPa
Statistics

The table below shows the detailed information of all flights to/from Smithfield, Johnston County Airport (KJNX).